地図

経路データ

SID SEASON NUMBER BASIN SUBBASIN NAME ISO_TIME NATURE LAT LON WMO_WIND WMO_PRES WMO_AGENCY TRACK_TYPE DIST2LAND LANDFALL IFLAG USA_AGENCY USA_ATCF_ID USA_LAT USA_LON USA_RECORD USA_STATUS USA_WIND USA_PRES USA_SSHS USA_R34_NE USA_R34_SE USA_R34_SW USA_R34_NW USA_R50_NE USA_R50_SE USA_R50_SW USA_R50_NW USA_R64_NE USA_R64_SE USA_R64_SW USA_R64_NW USA_POCI USA_ROCI USA_RMW USA_EYE TOKYO_LAT TOKYO_LON TOKYO_GRADE TOKYO_WIND TOKYO_PRES TOKYO_R50_DIR TOKYO_R50_LONG TOKYO_R50_SHORT TOKYO_R30_DIR TOKYO_R30_LONG TOKYO_R30_SHORT TOKYO_LAND CMA_LAT CMA_LON CMA_CAT CMA_WIND CMA_PRES HKO_LAT HKO_LON HKO_CAT HKO_WIND HKO_PRES NEWDELHI_LAT NEWDELHI_LON NEWDELHI_GRADE NEWDELHI_WIND NEWDELHI_PRES NEWDELHI_CI NEWDELHI_DP NEWDELHI_POCI REUNION_LAT REUNION_LON REUNION_TYPE REUNION_WIND REUNION_PRES REUNION_TNUM REUNION_CI REUNION_RMW REUNION_R34_NE REUNION_R34_SE REUNION_R34_SW REUNION_R34_NW REUNION_R50_NE REUNION_R50_SE REUNION_R50_SW REUNION_R50_NW REUNION_R64_NE REUNION_R64_SE REUNION_R64_SW REUNION_R64_NW BOM_LAT BOM_LON BOM_TYPE BOM_WIND BOM_PRES BOM_TNUM BOM_CI BOM_RMW BOM_R34_NE BOM_R34_SE BOM_R34_SW BOM_R34_NW BOM_R50_NE BOM_R50_SE BOM_R50_SW BOM_R50_NW BOM_R64_NE BOM_R64_SE BOM_R64_SW BOM_R64_NW BOM_ROCI BOM_POCI BOM_EYE BOM_POS_METHOD BOM_PRES_METHOD NADI_LAT NADI_LON NADI_CAT NADI_WIND NADI_PRES WELLINGTON_LAT WELLINGTON_LON WELLINGTON_WIND WELLINGTON_PRES DS824_LAT DS824_LON DS824_STAGE DS824_WIND DS824_PRES TD9636_LAT TD9636_LON TD9636_STAGE TD9636_WIND TD9636_PRES TD9635_LAT TD9635_LON TD9635_WIND TD9635_PRES TD9635_ROCI NEUMANN_LAT NEUMANN_LON NEUMANN_CLASS NEUMANN_WIND NEUMANN_PRES MLC_LAT MLC_LON MLC_CLASS MLC_WIND MLC_PRES USA_GUST BOM_GUST BOM_GUST_PER REUNION_GUST REUNION_GUST_PER USA_SEAHGT USA_SEARAD_NE USA_SEARAD_SE USA_SEARAD_SW USA_SEARAD_NW STORM_SPEED STORM_DIR
1906091S14069 1906 13 SI MM NOT_NAMED 1906-04-01 06:00:00 NR -14.2000 68.9000 reunion main 1360 1317 _____O________ -1 -14.2000 68.9000 99 9.90000 9 258
1906091S14069 1906 13 SI MM NOT_NAMED 1906-04-01 09:00:00 NR -14.2918 68.4485 main 1308 1265 _____P________ -1 -14.2918 68.4485 99 9 258
1906091S14069 1906 13 SI MM NOT_NAMED 1906-04-01 12:00:00 NR -14.3851 67.9969 main 1265 1223 _____P________ -1 -14.3851 67.9969 99 9 258
1906091S14069 1906 13 SI MM NOT_NAMED 1906-04-01 15:00:00 NR -14.4820 67.5454 main 1214 1171 _____P________ -1 -14.4820 67.5454 99 9 257
1906091S14069 1906 13 SI MM NOT_NAMED 1906-04-01 18:00:00 NR -14.5848 67.0945 main 1171 1129 _____P________ -1 -14.5848 67.0945 99 9 256
1906091S14069 1906 13 SI MM NOT_NAMED 1906-04-01 21:00:00 NR -14.6957 66.6443 main 1120 1078 _____P________ -1 -14.6957 66.6443 99 9 255
1906091S14069 1906 13 SI MM NOT_NAMED 1906-04-02 00:00:00 NR -14.8170 66.1950 main 1078 1037 _____P________ -1 -14.8170 66.1950 99 9 254
1906091S14069 1906 13 SI MM NOT_NAMED 1906-04-02 03:00:00 NR -14.9511 65.7469 main 1022 980 _____P________ -1 -14.9511 65.7469 99 9 252
1906091S14069 1906 13 SI MM NOT_NAMED 1906-04-02 06:00:00 NR -15.1000 65.3000 reunion main 980 932 _____O________ -1 -15.1000 65.3000 99 9.90000 9 250
1906091S14069 1906 13 SI MM NOT_NAMED 1906-04-02 09:00:00 NR -15.2654 64.8551 main 932 883 _____P________ -1 -15.2654 64.8551 99 9 248
1906091S14069 1906 13 SI MM NOT_NAMED 1906-04-02 12:00:00 NR -15.4455 64.4153 main 883 835 _____P________ -1 -15.4455 64.4153 99 9 246
1906091S14069 1906 13 SI MM NOT_NAMED 1906-04-02 15:00:00 NR -15.6379 63.9843 main 835 787 _____P________ -1 -15.6379 63.9843 99 9 244
1906091S14069 1906 13 SI MM NOT_NAMED 1906-04-02 18:00:00 NR -15.8401 63.5662 main 787 740 _____P________ -1 -15.8401 63.5662 99 9 242
1906091S14069 1906 13 SI MM NOT_NAMED 1906-04-02 21:00:00 NR -16.0498 63.1647 main 740 686 _____P________ -1 -16.0498 63.1647 99 9 241
1906091S14069 1906 13 SI MM NOT_NAMED 1906-04-03 00:00:00 NR -16.2646 62.7839 main 686 639 _____P________ -1 -16.2646 62.7839 99 8 239
1906091S14069 1906 13 SI MM NOT_NAMED 1906-04-03 03:00:00 NR -16.4821 62.4276 main 639 600 _____P________ -1 -16.4821 62.4276 99 8 236
1906091S14069 1906 13 SI MM NOT_NAMED 1906-04-03 06:00:00 NR -16.7000 62.1000 reunion main 600 561 _____O________ -1 -16.7000 62.1000 99 9.90000 8 235
1906091S14069 1906 13 SI MM NOT_NAMED 1906-04-03 09:00:00 NR -16.9166 61.7905 main 561 522 _____P________ -1 -16.9166 61.7905 99 7 232
1906091S14069 1906 13 SI MM NOT_NAMED 1906-04-03 12:00:00 NR -17.1368 61.5084 main 522 491 _____P________ -1 -17.1368 61.5084 99 7 229
1906091S14069 1906 13 SI MM NOT_NAMED 1906-04-03 15:00:00 NR -17.3582 61.2520 main 484 445 _____P________ -1 -17.3582 61.2520 99 6 227
1906091S14069 1906 13 SI MM NOT_NAMED 1906-04-03 18:00:00 NR -17.5785 61.0197 main 445 415 _____P________ -1 -17.5785 61.0197 99 6 224
1906091S14069 1906 13 SI MM NOT_NAMED 1906-04-03 21:00:00 NR -17.7952 60.8099 main 415 384 _____P________ -1 -17.7952 60.8099 99 6 222
1906091S14069 1906 13 SI MM NOT_NAMED 1906-04-04 00:00:00 NR -18.0060 60.6211 main 384 362 _____P________ -1 -18.0060 60.6211 99 5 219
1906091S14069 1906 13 SI MM NOT_NAMED 1906-04-04 03:00:00 NR -18.2084 60.4517 main 362 332 _____P________ -1 -18.2084 60.4517 99 5 218
1906091S14069 1906 13 SI MM NOT_NAMED 1906-04-04 06:00:00 NR -18.4000 60.3000 reunion main 332 302 _____O________ -1 -18.4000 60.3000 99 9.90000 5 220
1906091S14069 1906 13 SI MM NOT_NAMED 1906-04-04 09:00:00 NR -18.5595 60.1395 main 302 287 _____P________ -1 -18.5595 60.1395 99 4 223
1906091S14069 1906 13 SI MM NOT_NAMED 1906-04-04 12:00:00 NR -18.7070 59.9988 main 287 272 _____P________ -1 -18.7070 59.9988 99 4 221
1906091S14069 1906 13 SI MM NOT_NAMED 1906-04-04 15:00:00 NR -18.8471 59.8765 main 272 252 _____P________ -1 -18.8471 59.8765 99 4 218
1906091S14069 1906 13 SI MM NOT_NAMED 1906-04-04 18:00:00 NR -18.9844 59.7715 main 252 237 _____P________ -1 -18.9844 59.7715 99 3 213
1906091S14069 1906 13 SI MM NOT_NAMED 1906-04-04 21:00:00 NR -19.1237 59.6826 main 237 218 _____P________ -1 -19.1237 59.6826 99 3 208
1906091S14069 1906 13 SI MM NOT_NAMED 1906-04-05 00:00:00 NR -19.2697 59.6085 main 218 213 _____P________ -1 -19.2697 59.6085 99 3 203
1906091S14069 1906 13 SI MM NOT_NAMED 1906-04-05 03:00:00 NR -19.4269 59.5481 main 203 194 _____P________ -1 -19.4269 59.5481 99 3 198
1906091S14069 1906 13 SI MM NOT_NAMED 1906-04-05 06:00:00 NR -19.6000 59.5000 reunion main 194 176 _____O________ -1 -19.6000 59.5000 99 9.90000 4 196
1906091S14069 1906 13 SI MM NOT_NAMED 1906-04-05 09:00:00 NR -19.8220 59.4284 main 176 170 _____P________ -1 -19.8220 59.4284 99 5 195
1906091S14069 1906 13 SI MM NOT_NAMED 1906-04-05 12:00:00 NR -20.0609 59.3683 main 168 156 _____P________ -1 -20.0609 59.3683 99 5 191
1906091S14069 1906 13 SI MM NOT_NAMED 1906-04-05 15:00:00 NR -20.3105 59.3223 main 156 156 _____P________ -1 -20.3105 59.3223 99 5 188
1906091S14069 1906 13 SI MM NOT_NAMED 1906-04-05 18:00:00 NR -20.5645 59.2932 main 159 159 _____P________ -1 -20.5645 59.2932 99 5 185
1906091S14069 1906 13 SI MM NOT_NAMED 1906-04-05 21:00:00 NR -20.8166 59.2837 main 165 165 _____P________ -1 -20.8166 59.2837 99 5 0
1906091S14069 1906 13 SI MM NOT_NAMED 1906-04-06 00:00:00 NR -21.0608 59.2965 main 179 179 _____P________ -1 -21.0608 59.2965 99 5 174
1906091S14069 1906 13 SI MM NOT_NAMED 1906-04-06 03:00:00 NR -21.2907 59.3344 main 188 188 _____P________ -1 -21.2907 59.3344 99 5 168
1906091S14069 1906 13 SI MM NOT_NAMED 1906-04-06 06:00:00 NR -21.5000 59.4000 reunion main 208 208 _____O________ -1 -21.5000 59.4000 99 9.90000 4 159
1906091S14069 1906 13 SI MM NOT_NAMED 1906-04-06 09:00:00 NR -21.6841 59.4951 main 229 229 _____P________ -1 -21.6841 59.4951 99 4 150
1906091S14069 1906 13 SI MM NOT_NAMED 1906-04-06 12:00:00 NR -21.8448 59.6171 main 244 244 _____P________ -1 -21.8448 59.6171 99 4 141
1906091S14069 1906 13 SI MM NOT_NAMED 1906-04-06 15:00:00 NR -21.9852 59.7621 main 274 274 _____P________ -1 -21.9852 59.7621 99 4 132
1906091S14069 1906 13 SI MM NOT_NAMED 1906-04-06 18:00:00 NR -22.1087 59.9263 main 289 289 _____P________ -1 -22.1087 59.9263 99 4 126
1906091S14069 1906 13 SI MM NOT_NAMED 1906-04-06 21:00:00 NR -22.2186 60.1060 main 312 312 _____P________ -1 -22.2186 60.1060 99 4 121
1906091S14069 1906 13 SI MM NOT_NAMED 1906-04-07 00:00:00 NR -22.3183 60.2974 main 336 336 _____P________ -1 -22.3183 60.2974 99 4 118
1906091S14069 1906 13 SI MM NOT_NAMED 1906-04-07 03:00:00 NR -22.4109 60.4967 main 359 359 _____P________ -1 -22.4109 60.4967 99 4 116
1906091S14069 1906 13 SI MM NOT_NAMED 1906-04-07 06:00:00 NR -22.5000 60.7000 reunion main 382 _____O________ -1 -22.5000 60.7000 99 9.90000 4 115

IBTrACS Databaseについて

本データベースは、米国NOAAが公開する1842年以降の世界の熱帯低気圧のベストトラックデータアーカイブInternational Best Track Archive for Climate Stewardship (IBTrACS)を、ウェブで閲覧しやすい形式に変換したものです。

最終更新日:2021-12-06